Time;durP1;ratioP1;P1;durP2;ratioP2;P2;SDS_P1;SDS_P2;PMS_P1;PMS_P2;Temp;Humidity;BMP_temperature;BMP_pressure;BME280_temperature;BME280_humidity;BME280_pressure;Samples;Min_cycle;Max_cycle;Signal;HPM_P1;HPM_P2
2022/09/16 00:01:12;;;;;;;4.50;0.80;;;;;;;;;;5054086;28;20419;-64
2022/09/16 00:03:38;;;;;;;3.88;0.90;;;;;;;;;;5053700;28;20073;-64
2022/09/16 00:06:04;;;;;;;4.45;0.70;;;;;;;;;;5053026;28;20494;-64
2022/09/16 00:08:31;;;;;;;5.65;0.90;;;;;;;;;;5052751;28;20048;-64
2022/09/16 00:11:00;;;;;;;4.68;1.00;;;;;;;;;;5050020;28;20048;-64
2022/09/16 00:13:26;;;;;;;5.45;1.02;;;;;;;;;;5053191;28;20051;-64
2022/09/16 00:15:52;;;;;;;6.25;0.82;;;;;;;;;;5053651;28;20045;-64
2022/09/16 00:18:19;;;;;;;3.90;0.93;;;;;;;;;;5053175;28;20029;-64
2022/09/16 00:20:46;;;;;;;4.63;1.02;;;;;;;;;;5053602;28;20037;-64
2022/09/16 00:23:12;;;;;;;3.17;1.00;;;;;;;;;;5048041;28;20036;-64
2022/09/16 00:25:38;;;;;;;2.20;0.60;;;;;;;;;;5053022;28;20554;-64
2022/09/16 00:28:04;;;;;;;4.75;0.80;;;;;;;;;;5052739;28;20041;-64
2022/09/16 00:30:30;;;;;;;2.38;1.00;;;;;;;;;;5052406;28;20540;-64
2022/09/16 00:32:56;;;;;;;3.47;1.02;;;;;;;;;;5052972;28;20118;-64
2022/09/16 00:35:22;;;;;;;1.73;0.85;;;;;;;;;;5049607;28;20037;-64
2022/09/16 00:37:48;;;;;;;6.70;1.30;;;;;;;;;;5051360;28;20112;-64
2022/09/16 00:40:14;;;;;;;3.25;1.10;;;;;;;;;;5044692;28;20036;-64
2022/09/16 00:42:40;;;;;;;5.75;1.00;;;;;;;;;;5053783;28;20037;-64
2022/09/16 00:45:14;;;;;;;5.35;1.00;;;;;;;;;;5052443;28;20052;-64
2022/09/16 00:47:43;;;;;;;2.42;0.90;;;;;;;;;;5046287;28;20037;-64
2022/09/16 00:50:16;;;;;;;3.92;1.00;;;;;;;;;;5042811;28;20502;-64
2022/09/16 00:52:42;;;;;;;2.28;1.00;;;;;;;;;;5052000;28;20075;-64
2022/09/16 00:55:11;;;;;;;4.95;0.80;;;;;;;;;;5051046;28;20037;-64
2022/09/16 00:57:37;;;;;;;7.22;1.05;;;;;;;;;;5050162;28;20487;-64
2022/09/16 01:00:05;;;;;;;4.63;1.05;;;;;;;;;;5051560;28;20044;-64
2022/09/16 01:02:31;;;;;;;3.95;0.95;;;;;;;;;;5051935;28;20128;-64
2022/09/16 01:05:02;;;;;;;5.95;0.90;;;;;;;;;;5050061;28;20204;-64
2022/09/16 01:07:47;;;;;;;2.97;0.88;;;;;;;;;;5051996;28;20534;-64
2022/09/16 01:10:15;;;;;;;2.85;0.73;;;;;;;;;;5043749;28;20617;-64
2022/09/16 01:12:43;;;;;;;4.13;1.10;;;;;;;;;;5051298;28;20128;-64
2022/09/16 01:15:11;;;;;;;2.38;1.00;;;;;;;;;;5050807;28;20410;-64
2022/09/16 01:17:46;;;;;;;3.10;0.77;;;;;;;;;;5050419;28;20040;-64
2022/09/16 01:20:15;;;;;;;5.78;1.35;;;;;;;;;;5052075;28;20045;-64
2022/09/16 01:22:44;;;;;;;5.82;1.00;;;;;;;;;;5051366;28;20487;-64
2022/09/16 01:25:26;;;;;;;4.50;0.70;;;;;;;;;;5051877;28;20049;-64
2022/09/16 01:28:11;;;;;;;3.00;0.90;;;;;;;;;;5050583;28;20033;-64
2022/09/16 01:30:48;;;;;;;3.05;0.70;;;;;;;;;;5043008;28;20041;-64
2022/09/16 01:33:24;;;;;;;5.25;1.17;;;;;;;;;;5049281;28;20103;-64
2022/09/16 01:35:59;;;;;;;4.75;0.80;;;;;;;;;;5051029;28;20048;-64
2022/09/16 01:39:00;;;;;;;2.20;0.82;;;;;;;;;;5051275;28;20510;-64
2022/09/16 01:41:33;;;;;;;3.40;0.77;;;;;;;;;;4956777;28;20901;-64
2022/09/16 01:44:05;;;;;;;4.80;0.77;;;;;;;;;;5039476;28;20049;-64
2022/09/16 01:46:40;;;;;;;5.78;1.95;;;;;;;;;;5033206;28;20053;-64
2022/09/16 01:49:12;;;;;;;2.33;0.60;;;;;;;;;;5051938;28;20111;-64
2022/09/16 01:52:02;;;;;;;3.85;0.60;;;;;;;;;;5051396;28;20045;-64
2022/09/16 01:54:54;;;;;;;6.30;1.10;;;;;;;;;;5050759;28;20045;-64
2022/09/16 01:57:28;;;;;;;5.43;1.00;;;;;;;;;;5047510;28;20052;-64
2022/09/16 01:59:58;;;;;;;4.30;0.70;;;;;;;;;;5050831;28;20444;-64
2022/09/16 02:02:28;;;;;;;3.70;0.97;;;;;;;;;;5060538;28;20497;-65
2022/09/16 02:04:55;;;;;;;2.60;0.70;;;;;;;;;;5064086;28;20041;-64
2022/09/16 02:07:23;;;;;;;2.63;0.70;;;;;;;;;;5039672;28;20037;-64
2022/09/16 02:09:50;;;;;;;2.55;0.93;;;;;;;;;;5044764;28;20099;-64
2022/09/16 02:12:20;;;;;;;4.95;0.60;;;;;;;;;;5051626;28;20041;-64
2022/09/16 02:14:47;;;;;;;5.38;0.85;;;;;;;;;;5051789;28;20128;-64
2022/09/16 02:17:15;;;;;;;6.00;0.90;;;;;;;;;;5051519;28;20040;-64
2022/09/16 02:19:47;;;;;;;8.02;1.30;;;;;;;;;;5048678;28;20124;-64
2022/09/16 02:22:15;;;;;;;3.95;0.90;;;;;;;;;;5047061;28;20037;-64
2022/09/16 02:24:43;;;;;;;3.83;0.77;;;;;;;;;;5051900;28;20037;-64
2022/09/16 02:27:12;;;;;;;6.80;0.85;;;;;;;;;;5050800;28;20119;-64
2022/09/16 02:29:44;;;;;;;3.72;0.77;;;;;;;;;;5050623;28;20051;-64
2022/09/16 02:32:11;;;;;;;3.30;0.70;;;;;;;;;;5050144;28;20064;-64
2022/09/16 02:34:40;;;;;;;2.10;0.90;;;;;;;;;;5041939;28;20401;-64
2022/09/16 02:37:18;;;;;;;4.95;1.02;;;;;;;;;;5048552;28;20044;-64
2022/09/16 02:39:47;;;;;;;3.63;0.80;;;;;;;;;;5031351;28;20505;-64
2022/09/16 02:42:13;;;;;;;2.58;0.60;;;;;;;;;;5030452;28;20050;-64
2022/09/16 02:44:40;;;;;;;4.63;0.75;;;;;;;;;;5049587;28;20041;-64
2022/09/16 02:47:13;;;;;;;8.90;1.30;;;;;;;;;;5048901;28;20036;-64
2022/09/16 02:49:43;;;;;;;4.35;0.88;;;;;;;;;;5051407;28;20580;-64
2022/09/16 02:52:09;;;;;;;3.42;0.68;;;;;;;;;;5048916;28;20033;-64
2022/09/16 02:54:39;;;;;;;4.22;0.82;;;;;;;;;;5042979;28;20541;-64
2022/09/16 02:57:05;;;;;;;3.38;0.80;;;;;;;;;;5051155;28;20045;-64
2022/09/16 02:59:31;;;;;;;6.65;1.10;;;;;;;;;;5049455;28;20079;-64
2022/09/16 03:01:58;;;;;;;6.10;0.90;;;;;;;;;;5049818;28;20065;-64
2022/09/16 03:04:24;;;;;;;4.40;0.60;;;;;;;;;;5049469;28;20410;-64
2022/09/16 03:06:50;;;;;;;3.47;0.70;;;;;;;;;;5051261;28;20102;-64
2022/09/16 03:09:17;;;;;;;5.13;0.70;;;;;;;;;;5050493;28;20120;-64
2022/09/16 03:12:04;;;;;;;3.25;0.95;;;;;;;;;;5051410;28;20045;-64
2022/09/16 03:14:36;;;;;;;5.32;0.98;;;;;;;;;;5049302;28;20136;-64
2022/09/16 03:17:05;;;;;;;4.65;0.90;;;;;;;;;;5048872;28;20044;-64
2022/09/16 03:19:47;;;;;;;4.60;0.98;;;;;;;;;;5041566;28;20484;-64
2022/09/16 03:22:18;;;;;;;2.35;0.60;;;;;;;;;;5054440;28;20043;-64
2022/09/16 03:24:49;;;;;;;2.70;0.80;;;;;;;;;;5053979;28;20041;-64
2022/09/16 03:27:22;;;;;;;2.25;0.75;;;;;;;;;;5052034;28;20137;-64
2022/09/16 03:30:14;;;;;;;3.80;1.02;;;;;;;;;;5053971;28;20132;-64
2022/09/16 03:32:47;;;;;;;4.05;0.93;;;;;;;;;;5045621;28;20049;-64
2022/09/16 03:35:19;;;;;;;3.33;0.65;;;;;;;;;;5052156;28;20073;-64
2022/09/16 03:37:46;;;;;;;4.50;0.80;;;;;;;;;;5053007;28;20048;-64
2022/09/16 03:40:13;;;;;;;4.60;1.52;;;;;;;;;;5054569;28;20037;-61
2022/09/16 03:42:40;;;;;;;4.55;0.82;;;;;;;;;;5046033;28;20398;-61
2022/09/16 03:45:07;;;;;;;3.28;0.80;;;;;;;;;;5051518;28;20041;-63
2022/09/16 03:47:33;;;;;;;3.67;0.95;;;;;;;;;;5044768;28;20048;-63
2022/09/16 03:49:59;;;;;;;4.82;0.77;;;;;;;;;;5054063;28;20045;-63
2022/09/16 03:52:25;;;;;;;4.40;0.60;;;;;;;;;;5054509;28;20040;-63
2022/09/16 03:54:51;;;;;;;5.00;0.80;;;;;;;;;;5054474;28;20407;-63
2022/09/16 03:57:17;;;;;;;4.70;1.35;;;;;;;;;;5048701;28;20081;-63
2022/09/16 03:59:43;;;;;;;3.85;0.70;;;;;;;;;;5050033;28;20502;-63
2022/09/16 04:02:09;;;;;;;3.70;0.85;;;;;;;;;;5051740;28;20032;-63
2022/09/16 04:04:35;;;;;;;3.67;1.00;;;;;;;;;;5061815;28;20044;-63
2022/09/16 04:07:01;;;;;;;7.57;1.13;;;;;;;;;;5069223;28;20468;-63
2022/09/16 04:09:27;;;;;;;7.18;0.77;;;;;;;;;;5069079;28;20067;-63
2022/09/16 04:11:53;;;;;;;4.47;0.95;;;;;;;;;;5048078;28;20495;-63
2022/09/16 04:14:19;;;;;;;5.18;1.08;;;;;;;;;;5045416;28;20048;-63
2022/09/16 04:16:45;;;;;;;3.78;1.05;;;;;;;;;;5052885;28;20071;-63
2022/09/16 04:19:12;;;;;;;3.22;1.00;;;;;;;;;;5053702;28;20063;-63
2022/09/16 04:21:38;;;;;;;5.50;1.02;;;;;;;;;;5053063;28;20102;-62
2022/09/16 04:24:04;;;;;;;4.53;0.70;;;;;;;;;;5050144;28;20055;-63
2022/09/16 04:26:30;;;;;;;5.93;0.85;;;;;;;;;;5051051;28;20127;-63
2022/09/16 04:28:56;;;;;;;4.97;1.10;;;;;;;;;;5053441;28;20613;-63
2022/09/16 04:31:22;;;;;;;6.88;1.10;;;;;;;;;;5052735;28;20072;-63
2022/09/16 04:33:48;;;;;;;2.33;0.60;;;;;;;;;;5053043;28;20079;-63
2022/09/16 04:36:15;;;;;;;2.22;0.70;;;;;;;;;;5053727;28;20072;-63
2022/09/16 04:38:42;;;;;;;4.90;0.90;;;;;;;;;;5047283;28;20052;-63
2022/09/16 04:41:09;;;;;;;2.15;0.70;;;;;;;;;;5047452;28;20029;-63
2022/09/16 04:43:35;;;;;;;6.25;1.00;;;;;;;;;;5050152;28;20094;-63
2022/09/16 04:46:01;;;;;;;3.60;0.90;;;;;;;;;;5052853;28;20049;-63
2022/09/16 04:48:28;;;;;;;3.25;1.00;;;;;;;;;;5051657;28;20049;-63
2022/09/16 04:50:54;;;;;;;5.05;0.75;;;;;;;;;;5053195;28;20033;-63
2022/09/16 04:53:20;;;;;;;7.05;0.90;;;;;;;;;;5052547;28;20041;-63
2022/09/16 04:55:47;;;;;;;3.55;1.00;;;;;;;;;;5050926;28;20036;-63
2022/09/16 04:58:13;;;;;;;7.25;0.85;;;;;;;;;;5050776;28;20040;-63
2022/09/16 05:00:39;;;;;;;5.63;0.80;;;;;;;;;;5052500;28;20036;-63
2022/09/16 05:03:06;;;;;;;5.82;0.90;;;;;;;;;;5052938;28;20033;-63
2022/09/16 05:05:32;;;;;;;6.63;1.20;;;;;;;;;;5045064;28;20064;-63
2022/09/16 05:07:58;;;;;;;4.07;0.70;;;;;;;;;;5047454;28;20037;-63
2022/09/16 05:10:24;;;;;;;3.42;0.90;;;;;;;;;;5043221;28;20041;-63
2022/09/16 05:12:51;;;;;;;3.83;1.08;;;;;;;;;;5051216;28;20041;-63
2022/09/16 05:15:17;;;;;;;3.80;0.88;;;;;;;;;;5051392;28;20037;-63
2022/09/16 05:17:44;;;;;;;8.90;1.20;;;;;;;;;;5052966;28;20060;-63
2022/09/16 05:20:10;;;;;;;4.88;1.00;;;;;;;;;;5051315;28;20491;-63
2022/09/16 05:22:36;;;;;;;4.63;1.17;;;;;;;;;;5051329;28;20502;-63
2022/09/16 05:25:02;;;;;;;4.53;1.02;;;;;;;;;;5052299;28;20139;-63
2022/09/16 05:27:32;;;;;;;3.78;1.55;;;;;;;;;;5050644;28;20060;-63
2022/09/16 05:29:59;;;;;;;6.07;1.40;;;;;;;;;;5041939;28;20045;-63
2022/09/16 05:32:26;;;;;;;4.93;1.00;;;;;;;;;;5052431;28;20403;-63
2022/09/16 05:34:52;;;;;;;3.53;1.08;;;;;;;;;;5051274;28;20045;-63
2022/09/16 05:37:18;;;;;;;3.45;1.17;;;;;;;;;;5050205;28;20052;-63
2022/09/16 05:39:44;;;;;;;3.17;1.08;;;;;;;;;;5051073;28;20037;-63
2022/09/16 05:42:10;;;;;;;5.65;1.20;;;;;;;;;;5051246;28;20411;-63
2022/09/16 05:44:36;;;;;;;3.45;1.00;;;;;;;;;;5050757;28;20045;-63
2022/09/16 05:47:03;;;;;;;3.95;1.08;;;;;;;;;;5071305;22;20041;-65
2022/09/16 05:49:29;;;;;;;3.90;1.02;;;;;;;;;;5064153;28;20097;-65
2022/09/16 05:51:55;;;;;;;4.50;1.20;;;;;;;;;;5071422;28;20037;-65
2022/09/16 05:54:23;;;;;;;4.10;1.20;;;;;;;;;;5062658;28;20094;-65
2022/09/16 05:56:50;;;;;;;3.80;1.10;;;;;;;;;;5069678;28;20040;-65
2022/09/16 05:59:16;;;;;;;6.03;1.10;;;;;;;;;;5071852;28;20063;-66
2022/09/16 06:01:42;;;;;;;4.28;1.23;;;;;;;;;;5066348;28;20041;-65
2022/09/16 06:04:10;;;;;;;9.02;1.55;;;;;;;;;;5070508;28;20082;-66
2022/09/16 06:06:37;;;;;;;3.03;1.50;;;;;;;;;;5070836;28;20040;-66
2022/09/16 06:09:24;;;;;;;4.03;1.05;;;;;;;;;;5067833;28;20048;-65
2022/09/16 06:11:51;;;;;;;3.30;1.23;;;;;;;;;;5071570;28;20059;-65
2022/09/16 06:14:17;;;;;;;5.03;1.23;;;;;;;;;;5069883;28;20052;-66
2022/09/16 06:16:44;;;;;;;6.28;1.27;;;;;;;;;;5069405;28;20493;-66
2022/09/16 06:19:12;;;;;;;4.80;1.05;;;;;;;;;;5065379;28;20052;-66
2022/09/16 06:21:38;;;;;;;4.57;1.10;;;;;;;;;;5066122;28;20120;-66
2022/09/16 06:24:07;;;;;;;5.32;1.13;;;;;;;;;;5069229;28;20062;-66
2022/09/16 06:26:34;;;;;;;5.50;1.20;;;;;;;;;;5068771;28;20425;-66
2022/09/16 06:29:00;;;;;;;7.50;1.30;;;;;;;;;;5066160;28;20041;-66
2022/09/16 06:31:28;;;;;;;5.50;0.85;;;;;;;;;;5071548;28;20046;-66
2022/09/16 06:33:54;;;;;;;6.95;1.50;;;;;;;;;;5071852;28;20037;-66
2022/09/16 06:36:21;;;;;;;6.10;1.00;;;;;;;;;;5070459;28;20047;-65
2022/09/16 06:38:48;;;;;;;6.85;1.52;;;;;;;;;;5069526;28;20639;-65
2022/09/16 06:41:14;;;;;;;8.15;1.40;;;;;;;;;;5069343;28;20074;-66
2022/09/16 06:43:41;;;;;;;8.48;1.10;;;;;;;;;;5066588;28;20040;-65
2022/09/16 06:46:18;;;;;;;9.15;1.27;;;;;;;;;;5069933;28;20045;-66
2022/09/16 06:48:45;;;;;;;4.15;1.00;;;;;;;;;;5069648;28;20036;-65
2022/09/16 06:51:13;;;;;;;8.50;1.27;;;;;;;;;;5070677;28;20076;-66
2022/09/16 06:53:39;;;;;;;6.30;1.23;;;;;;;;;;5065741;28;20472;-65
2022/09/16 06:56:11;;;;;;;9.80;1.10;;;;;;;;;;5073558;28;20544;-66
2022/09/16 06:58:38;;;;;;;8.50;1.35;;;;;;;;;;5064090;28;20044;-66
2022/09/16 07:01:15;;;;;;;7.97;1.63;;;;;;;;;;5071691;28;20094;-66
2022/09/16 07:03:43;;;;;;;6.15;1.17;;;;;;;;;;5070581;28;20210;-65
2022/09/16 07:06:10;;;;;;;9.10;1.20;;;;;;;;;;5073954;28;20091;-65
2022/09/16 07:08:37;;;;;;;8.32;1.40;;;;;;;;;;5074380;28;20048;-66
2022/09/16 07:11:13;;;;;;;7.72;1.20;;;;;;;;;;5072860;28;20506;-66
2022/09/16 07:13:39;;;;;;;7.57;1.27;;;;;;;;;;5068051;28;20049;-65
2022/09/16 07:16:07;;;;;;;5.65;1.30;;;;;;;;;;5072346;28;20028;-66
2022/09/16 07:18:33;;;;;;;7.43;1.20;;;;;;;;;;5066477;28;20036;-65
2022/09/16 07:21:03;;;;;;;8.23;1.65;;;;;;;;;;5072962;28;20132;-66
2022/09/16 07:23:31;;;;;;;7.82;1.23;;;;;;;;;;5074261;28;20080;-66
2022/09/16 07:26:04;;;;;;;9.48;1.17;;;;;;;;;;5075004;28;20036;-66
2022/09/16 07:28:31;;;;;;;9.75;1.08;;;;;;;;;;5070675;28;20059;-65
2022/09/16 07:31:01;;;;;;;5.90;1.20;;;;;;;;;;5074045;28;20394;-65
2022/09/16 07:33:27;;;;;;;6.97;1.20;;;;;;;;;;5073572;28;20048;-65
2022/09/16 07:35:57;;;;;;;5.82;1.17;;;;;;;;;;5074237;28;20040;-66
2022/09/16 07:38:23;;;;;;;6.50;1.20;;;;;;;;;;5071638;28;20116;-65
2022/09/16 07:40:49;;;;;;;6.95;1.20;;;;;;;;;;5071419;28;20171;-65
2022/09/16 07:43:15;;;;;;;7.93;1.42;;;;;;;;;;5067457;28;20044;-66
2022/09/16 07:45:41;;;;;;;4.85;1.17;;;;;;;;;;5072951;28;20052;-65
2022/09/16 07:48:08;;;;;;;10.40;1.40;;;;;;;;;;5070366;28;20398;-65
2022/09/16 07:50:34;;;;;;;9.98;1.33;;;;;;;;;;5074119;28;20072;-65
2022/09/16 07:53:00;;;;;;;9.95;1.30;;;;;;;;;;5072201;28;20090;-65
2022/09/16 07:55:26;;;;;;;8.82;2.25;;;;;;;;;;5070400;28;20048;-65
2022/09/16 07:57:52;;;;;;;9.23;1.63;;;;;;;;;;5073996;28;20090;-66
2022/09/16 08:00:18;;;;;;;6.43;1.10;;;;;;;;;;5071013;28;20508;-66
2022/09/16 08:02:44;;;;;;;9.70;1.25;;;;;;;;;;5066720;28;20510;-66
2022/09/16 08:05:10;;;;;;;13.70;1.90;;;;;;;;;;5076498;28;20044;-66
2022/09/16 08:07:36;;;;;;;8.15;1.17;;;;;;;;;;5072563;28;20091;-66
2022/09/16 08:10:02;;;;;;;11.75;1.35;;;;;;;;;;5070030;28;20044;-66
2022/09/16 08:12:33;;;;;;;6.72;1.23;;;;;;;;;;5072969;28;20040;-66
2022/09/16 08:15:00;;;;;;;8.32;1.30;;;;;;;;;;5074485;28;20460;-66
2022/09/16 08:17:26;;;;;;;6.57;1.10;;;;;;;;;;5073725;28;20514;-66
2022/09/16 08:19:52;;;;;;;8.23;1.55;;;;;;;;;;5074122;28;20102;-66
2022/09/16 08:22:18;;;;;;;6.40;1.02;;;;;;;;;;5069630;28;20037;-66
2022/09/16 08:24:44;;;;;;;8.25;1.30;;;;;;;;;;5072734;28;20048;-66
2022/09/16 08:27:10;;;;;;;6.35;1.10;;;;;;;;;;5072551;28;20040;-66
2022/09/16 08:29:36;;;;;;;9.40;1.08;;;;;;;;;;5071780;28;20079;-66
2022/09/16 08:32:02;;;;;;;9.55;1.40;;;;;;;;;;5065374;28;20075;-66
2022/09/16 08:34:28;;;;;;;9.57;1.20;;;;;;;;;;5065334;28;20570;-66
2022/09/16 08:36:54;;;;;;;8.52;1.23;;;;;;;;;;5068845;28;20169;-66
2022/09/16 08:39:20;;;;;;;11.38;1.20;;;;;;;;;;5071922;28;20060;-66
2022/09/16 08:42:05;;;;;;;5.68;1.20;;;;;;;;;;5071854;28;20047;-66
2022/09/16 08:44:40;;;;;;;9.05;1.65;;;;;;;;;;5063231;28;20040;-66
2022/09/16 08:47:32;;;;;;;8.57;1.45;;;;;;;;;;5073201;28;20443;-67
2022/09/16 08:50:00;;;;;;;6.55;1.30;;;;;;;;;;5064649;28;20056;-66
2022/09/16 08:52:33;;;;;;;7.05;1.40;;;;;;;;;;5065180;28;20040;-66
2022/09/16 08:55:15;;;;;;;5.07;1.13;;;;;;;;;;5070090;28;20041;-66
2022/09/16 08:57:40;;;;;;;;;;;;;;;;;;5072098;28;20040;-66
2022/09/16 09:00:11;;;;;;;10.25;1.33;;;;;;;;;;5070214;28;20435;-66
2022/09/16 09:02:40;;;;;;;9.73;1.33;;;;;;;;;;5066724;28;20041;-66
2022/09/16 09:05:39;;;;;;;9.60;1.70;;;;;;;;;;5071397;28;20090;-66
2022/09/16 09:08:07;;;;;;;7.13;1.27;;;;;;;;;;5061756;28;20126;-66
2022/09/16 09:10:43;;;;;;;7.07;1.40;;;;;;;;;;5063263;28;20075;-66
2022/09/16 09:13:16;;;;;;;10.50;1.58;;;;;;;;;;5071038;28;20145;-66
2022/09/16 09:15:49;;;;;;;8.43;1.17;;;;;;;;;;5070607;28;20436;-67
2022/09/16 09:18:21;;;;;;;9.25;1.50;;;;;;;;;;5071924;28;20041;-66
2022/09/16 09:21:06;;;;;;;9.00;1.30;;;;;;;;;;5071835;28;20414;-66
2022/09/16 09:23:40;;;;;;;9.68;1.50;;;;;;;;;;5069405;28;20085;-67
2022/09/16 09:26:12;;;;;;;8.18;1.20;;;;;;;;;;5071547;28;20528;-67
2022/09/16 09:29:03;;;;;;;12.05;1.48;;;;;;;;;;5064080;28;20044;-67
2022/09/16 09:31:35;;;;;;;9.20;1.50;;;;;;;;;;5049429;28;20087;-67
2022/09/16 09:34:16;;;;;;;7.82;1.48;;;;;;;;;;5068361;28;20052;-67
2022/09/16 09:36:47;;;;;;;11.45;1.77;;;;;;;;;;5069800;28;20048;-67
2022/09/16 09:39:23;;;;;;;10.10;1.67;;;;;;;;;;5068836;28;20044;-67
2022/09/16 09:41:52;;;;;;;5.95;1.50;;;;;;;;;;5070381;28;20076;-67
2022/09/16 09:44:18;;;;;;;5.85;1.10;;;;;;;;;;5071812;28;20036;-67
2022/09/16 09:46:46;;;;;;;8.15;1.33;;;;;;;;;;5068210;28;20040;-67
2022/09/16 09:49:21;;;;;;;6.22;1.35;;;;;;;;;;5071174;28;20036;-67
2022/09/16 09:51:59;;;;;;;5.93;1.25;;;;;;;;;;5068971;28;20040;-66
2022/09/16 09:54:25;;;;;;;9.07;1.50;;;;;;;;;;5071333;28;20040;-66
2022/09/16 09:56:58;;;;;;;7.45;1.05;;;;;;;;;;5071371;28;20063;-66
2022/09/16 09:59:26;;;;;;;8.50;1.25;;;;;;;;;;5070189;28;20037;-66
2022/09/16 10:01:56;;;;;;;7.53;1.38;;;;;;;;;;5070789;28;20033;-66
2022/09/16 10:04:24;;;;;;;6.80;1.27;;;;;;;;;;5067313;28;20076;-66
2022/09/16 10:06:52;;;;;;;3.83;1.40;;;;;;;;;;5067027;28;20048;-66
2022/09/16 10:09:18;;;;;;;8.05;1.20;;;;;;;;;;5069388;28;20086;-66
2022/09/16 10:11:46;;;;;;;3.90;0.90;;;;;;;;;;5070700;28;20493;-66
2022/09/16 10:14:21;;;;;;;6.55;1.00;;;;;;;;;;5068452;28;20123;-66
2022/09/16 10:16:49;;;;;;;11.13;1.25;;;;;;;;;;5058027;28;20040;-66
2022/09/16 10:19:23;;;;;;;8.25;1.27;;;;;;;;;;5067255;28;20493;-66
2022/09/16 10:21:53;;;;;;;7.97;1.20;;;;;;;;;;5071562;28;20041;-67
2022/09/16 10:24:22;;;;;;;3.42;0.90;;;;;;;;;;5071555;28;20044;-66
2022/09/16 10:26:48;;;;;;;7.25;1.20;;;;;;;;;;5071320;28;20047;-67
2022/09/16 10:29:16;;;;;;;7.47;1.20;;;;;;;;;;5067663;28;20036;-66
2022/09/16 10:31:42;;;;;;;4.30;1.02;;;;;;;;;;5071133;28;20075;-66
2022/09/16 10:34:18;;;;;;;7.45;1.23;;;;;;;;;;5071228;28;20128;-66
2022/09/16 10:36:44;;;;;;;7.03;1.20;;;;;;;;;;5070540;28;20094;-66
2022/09/16 10:39:21;;;;;;;9.93;1.10;;;;;;;;;;5070451;28;20082;-66
2022/09/16 10:41:47;;;;;;;7.03;1.17;;;;;;;;;;5065701;28;20158;-66
2022/09/16 10:44:15;;;;;;;10.13;1.33;;;;;;;;;;5071564;28;20072;-67
2022/09/16 10:46:55;;;;;;;3.03;0.70;;;;;;;;;;5071495;28;20255;-68
2022/09/16 10:49:25;;;;;;;5.65;0.90;;;;;;;;;;5070782;28;20497;-67
2022/09/16 10:51:51;;;;;;;3.57;0.60;;;;;;;;;;5070805;28;20051;-66
2022/09/16 10:54:27;;;;;;;5.65;0.85;;;;;;;;;;5069976;28;20048;-66
2022/09/16 10:56:54;;;;;;;5.65;1.10;;;;;;;;;;5068634;28;20040;-66
2022/09/16 10:59:20;;;;;;;5.32;0.93;;;;;;;;;;5068791;28;20055;-66
2022/09/16 11:01:46;;;;;;;5.65;0.85;;;;;;;;;;5071722;28;20048;-66
2022/09/16 11:04:15;;;;;;;7.80;1.40;;;;;;;;;;5070891;28;20040;-66
2022/09/16 11:06:41;;;;;;;10.43;1.55;;;;;;;;;;5071434;28;20062;-66
2022/09/16 11:09:17;;;;;;;7.55;1.40;;;;;;;;;;5061712;28;20120;-66
2022/09/16 11:12:05;;;;;;;7.53;1.83;;;;;;;;;;5065113;28;20127;-66
2022/09/16 11:14:34;;;;;;;7.05;1.20;;;;;;;;;;5062169;28;20051;-66
2022/09/16 11:17:12;;;;;;;11.02;1.42;;;;;;;;;;5068112;28;20075;-66
2022/09/16 11:19:48;;;;;;;5.22;1.05;;;;;;;;;;5063550;28;20482;-66
2022/09/16 11:22:14;;;;;;;9.43;1.45;;;;;;;;;;5069585;28;20032;-66
2022/09/16 11:24:58;;;;;;;9.07;1.33;;;;;;;;;;5069239;28;20044;-66
2022/09/16 11:27:37;;;;;;;9.05;1.40;;;;;;;;;;5068733;28;20050;-66
2022/09/16 11:30:09;;;;;;;6.13;1.10;;;;;;;;;;5071064;28;20047;-66
2022/09/16 11:32:45;;;;;;;9.55;1.00;;;;;;;;;;5070442;28;20033;-67
2022/09/16 11:35:29;;;;;;;5.63;1.35;;;;;;;;;;5070136;28;20044;-66
2022/09/16 11:38:18;;;;;;;4.47;1.10;;;;;;;;;;5062834;28;20037;-66
2022/09/16 11:40:47;;;;;;;6.90;1.05;;;;;;;;;;5050561;28;20053;-67
2022/09/16 11:43:32;;;;;;;7.15;1.05;;;;;;;;;;5065646;28;20115;-67
2022/09/16 11:49:03;;;;;;;3.92;1.08;;;;;;;;;;5105803;28;20408;-65
2022/09/16 11:51:35;;;;;;;8.90;0.93;;;;;;;;;;5113806;28;20036;-65
2022/09/16 11:54:01;;;;;;;5.63;1.00;;;;;;;;;;5112301;28;20047;-65
2022/09/16 11:56:33;;;;;;;6.10;1.23;;;;;;;;;;5109223;27;20043;-64
2022/09/16 11:59:20;;;;;;;6.57;1.10;;;;;;;;;;5090939;28;20393;-65
2022/09/16 12:01:49;;;;;;;8.18;1.10;;;;;;;;;;5088669;28;20040;-65
2022/09/16 12:04:24;;;;;;;7.63;1.23;;;;;;;;;;5092041;28;20100;-65
2022/09/16 12:06:54;;;;;;;7.72;1.40;;;;;;;;;;5093614;28;20537;-65
2022/09/16 12:09:25;;;;;;;9.60;1.52;;;;;;;;;;5099633;28;20046;-64
2022/09/16 12:11:54;;;;;;;7.28;1.10;;;;;;;;;;5088736;28;20056;-65
2022/09/16 12:14:34;;;;;;;5.75;1.23;;;;;;;;;;5092450;28;20077;-64
2022/09/16 12:17:11;;;;;;;6.80;1.30;;;;;;;;;;5095798;28;20036;-65
2022/09/16 12:19:44;;;;;;;8.52;1.27;;;;;;;;;;5095958;28;20042;-64
2022/09/16 12:22:29;;;;;;;5.78;1.08;;;;;;;;;;5115311;28;20127;-65
2022/09/16 12:24:55;;;;;;;7.10;1.38;;;;;;;;;;5095347;28;20040;-65
2022/09/16 12:27:21;;;;;;;9.15;1.40;;;;;;;;;;5083557;28;20041;-65
2022/09/16 12:29:55;;;;;;;9.15;1.42;;;;;;;;;;5085936;28;20115;-65
2022/09/16 12:32:37;;;;;;;6.53;1.38;;;;;;;;;;5095123;28;20036;-65
2022/09/16 12:35:11;;;;;;;7.22;1.02;;;;;;;;;;5093552;28;20040;-65
2022/09/16 12:37:43;;;;;;;5.85;1.08;;;;;;;;;;5093503;28;20140;-64
2022/09/16 12:40:18;;;;;;;4.32;0.90;;;;;;;;;;5084845;28;20426;-64
2022/09/16 12:42:47;;;;;;;5.18;0.80;;;;;;;;;;5074063;28;20094;-64
2022/09/16 12:45:13;;;;;;;4.80;0.65;;;;;;;;;;5082687;28;20437;-64
2022/09/16 12:47:39;;;;;;;3.40;0.60;;;;;;;;;;5090622;28;20066;-64
2022/09/16 12:50:17;;;;;;;4.70;0.70;;;;;;;;;;5112745;28;20120;-64
2022/09/16 12:53:02;;;;;;;3.45;0.63;;;;;;;;;;5112967;28;20085;-64
2022/09/16 12:55:37;;;;;;;5.47;0.88;;;;;;;;;;5109090;28;20520;-64
2022/09/16 12:58:06;;;;;;;4.00;0.90;;;;;;;;;;5091482;28;20523;-64
2022/09/16 13:00:38;;;;;;;5.53;0.80;;;;;;;;;;5089854;28;20111;-65
2022/09/16 13:03:12;;;;;;;4.68;0.90;;;;;;;;;;5097273;28;20043;-65
2022/09/16 13:05:39;;;;;;;5.13;1.25;;;;;;;;;;5113784;28;20054;-64
2022/09/16 13:08:19;;;;;;;3.90;0.98;;;;;;;;;;5114026;28;20038;-64
2022/09/16 13:10:45;;;;;;;7.57;1.13;;;;;;;;;;5113507;28;20119;-64
2022/09/16 13:13:24;;;;;;;6.82;1.00;;;;;;;;;;5090748;28;20032;-65
2022/09/16 13:15:57;;;;;;;4.10;0.90;;;;;;;;;;5084097;28;20036;-64
2022/09/16 13:18:27;;;;;;;9.57;1.48;;;;;;;;;;5088128;28;20035;-65
2022/09/16 13:20:58;;;;;;;8.95;2.15;;;;;;;;;;5086903;28;20153;-65
2022/09/16 13:23:33;;;;;;;6.18;1.30;;;;;;;;;;5090263;28;20494;-65
2022/09/16 13:26:00;;;;;;;6.50;1.55;;;;;;;;;;5071046;28;20482;-65
2022/09/16 13:28:35;;;;;;;5.80;1.15;;;;;;;;;;5076714;28;20639;-65
2022/09/16 13:31:22;;;;;;;7.28;1.20;;;;;;;;;;5095803;28;20115;-65
2022/09/16 13:34:08;;;;;;;9.48;1.63;;;;;;;;;;5105532;28;20044;-65
2022/09/16 13:36:34;;;;;;;7.20;1.50;;;;;;;;;;5069850;28;20059;-65
2022/09/16 13:39:01;;;;;;;8.18;1.27;;;;;;;;;;5086874;28;20032;-64
2022/09/16 13:41:29;;;;;;;12.20;1.35;;;;;;;;;;5091121;28;20455;-65
2022/09/16 13:43:55;;;;;;;8.65;1.23;;;;;;;;;;5080468;28;20071;-65
2022/09/16 13:46:32;;;;;;;7.53;1.55;;;;;;;;;;5088310;28;20040;-65
2022/09/16 13:49:05;;;;;;;11.02;1.45;;;;;;;;;;5093370;28;20484;-64
2022/09/16 13:51:33;;;;;;;8.23;1.85;;;;;;;;;;5084965;28;20048;-66
2022/09/16 13:54:01;;;;;;;9.90;1.83;;;;;;;;;;5087715;28;20036;-66
2022/09/16 13:56:33;;;;;;;10.95;1.88;;;;;;;;;;5087525;28;20052;-65
2022/09/16 13:59:02;;;;;;;9.68;1.65;;;;;;;;;;5082826;28;20421;-65
2022/09/16 14:01:34;;;;;;;8.45;1.48;;;;;;;;;;5085363;28;20040;-65
2022/09/16 14:04:19;;;;;;;6.95;1.73;;;;;;;;;;5083515;28;20409;-64
2022/09/16 14:06:51;;;;;;;8.65;1.40;;;;;;;;;;5088095;28;20113;-63
2022/09/16 14:09:24;;;;;;;10.20;1.80;;;;;;;;;;5090453;28;20040;-63
2022/09/16 14:11:58;;;;;;;10.25;1.85;;;;;;;;;;5082496;28;20037;-64
2022/09/16 14:14:26;;;;;;;12.90;1.92;;;;;;;;;;5087044;28;20083;-63
2022/09/16 14:16:53;;;;;;;10.38;1.70;;;;;;;;;;5078063;22;20505;-64
2022/09/16 14:19:26;;;;;;;11.38;1.65;;;;;;;;;;5060799;28;20044;-64
2022/09/16 14:22:13;;;;;;;14.05;2.22;;;;;;;;;;5062090;28;20036;-64
2022/09/16 14:24:40;;;;;;;8.40;1.48;;;;;;;;;;5063965;28;20037;-64
2022/09/16 14:27:17;;;;;;;16.40;2.47;;;;;;;;;;5062524;28;20387;-64
2022/09/16 14:29:53;;;;;;;9.57;1.70;;;;;;;;;;5031201;28;20049;-65
2022/09/16 14:32:19;;;;;;;7.95;1.30;;;;;;;;;;5051371;28;20502;-65
2022/09/16 14:34:45;;;;;;;8.50;1.75;;;;;;;;;;5051529;28;20398;-66
2022/09/16 14:37:16;;;;;;;12.43;1.67;;;;;;;;;;5049336;28;20459;-65
2022/09/16 14:39:43;;;;;;;8.27;1.48;;;;;;;;;;5050786;28;20494;-65
2022/09/16 14:42:14;;;;;;;8.35;1.95;;;;;;;;;;5050884;28;20041;-64
2022/09/16 14:44:42;;;;;;;6.78;1.40;;;;;;;;;;5024542;28;20051;-64
2022/09/16 14:47:16;;;;;;;9.75;1.65;;;;;;;;;;5050214;28;20153;-65
2022/09/16 14:49:44;;;;;;;8.88;1.45;;;;;;;;;;5060455;28;20037;-65
2022/09/16 14:52:17;;;;;;;6.03;1.55;;;;;;;;;;5023438;28;20041;-63
2022/09/16 14:54:44;;;;;;;10.77;1.60;;;;;;;;;;5034557;28;20040;-64
2022/09/16 14:57:14;;;;;;;9.93;1.65;;;;;;;;;;5042163;28;20064;-64
2022/09/16 14:59:44;;;;;;;9.50;1.55;;;;;;;;;;5046452;28;20067;-64
2022/09/16 15:02:19;;;;;;;8.50;1.87;;;;;;;;;;5043246;28;20125;-64
2022/09/16 15:04:47;;;;;;;13.68;1.92;;;;;;;;;;5042968;28;20110;-64